createdAt,value
2022-08-05T00:01:27.623Z,5.70
2022-08-05T00:04:18.752Z,4.43
2022-08-05T00:07:27.341Z,8.87
2022-08-05T00:10:15.644Z,5.00
2022-08-05T00:13:04.071Z,6.43
2022-08-05T00:15:55.069Z,4.67
2022-08-05T00:18:48.086Z,7.97
2022-08-05T00:21:38.532Z,7.30
2022-08-05T00:24:31.509Z,5.33
2022-08-05T00:27:20.068Z,6.47
2022-08-05T00:30:17.150Z,5.97
2022-08-05T00:33:06.363Z,6.43
2022-08-05T00:36:16.382Z,7.80
2022-08-05T00:39:14.659Z,11.03
2022-08-05T00:42:04.214Z,9.43
2022-08-05T00:44:52.634Z,11.43
2022-08-05T00:47:57.425Z,11.97
2022-08-05T00:50:52.507Z,7.70
2022-08-05T00:53:59.959Z,7.73
2022-08-05T00:56:51.872Z,6.57
2022-08-05T00:59:44.453Z,5.27
2022-08-05T01:02:33.308Z,7.40
2022-08-05T01:05:21.753Z,6.53
2022-08-05T01:08:41.365Z,7.37
2022-08-05T01:11:33.707Z,8.43
2022-08-05T01:14:32.642Z,6.73
2022-08-05T01:17:26.544Z,8.37
2022-08-05T01:20:20.499Z,9.80
2022-08-05T01:23:22.778Z,6.57
2022-08-05T01:26:32.767Z,6.27
2022-08-05T01:29:26.211Z,5.03
2022-08-05T01:32:22.856Z,3.70
2022-08-05T01:35:51.854Z,9.37
2022-08-05T01:38:27.167Z,3.23
2022-08-05T01:41:21.645Z,7.03
2022-08-05T01:44:11.331Z,4.00
2022-08-05T01:47:01.426Z,5.90
2022-08-05T01:50:01.475Z,5.83
2022-08-05T01:52:51.235Z,4.07
2022-08-05T01:55:41.738Z,5.30
2022-08-05T01:58:44.690Z,7.63
2022-08-05T02:01:40.112Z,6.47
2022-08-05T02:04:30.998Z,9.13
2022-08-05T02:07:21.912Z,7.33
2022-08-05T02:10:11.351Z,8.13
2022-08-05T02:13:15.922Z,7.30
2022-08-05T02:16:08.603Z,6.80
2022-08-05T02:19:07.789Z,6.93
2022-08-05T02:22:00.262Z,9.63
2022-08-05T02:24:52.458Z,5.53
2022-08-05T02:27:59.538Z,6.40
2022-08-05T02:30:54.662Z,4.87
2022-08-05T02:33:49.939Z,5.53
2022-08-05T02:36:58.536Z,5.67
2022-08-05T02:39:47.661Z,4.77
2022-08-05T02:42:40.113Z,9.30
2022-08-05T02:45:28.703Z,5.73
2022-08-05T02:48:37.137Z,4.57
2022-08-05T02:51:28.562Z,4.87
2022-08-05T02:54:37.703Z,4.60
2022-08-05T02:58:11.718Z,6.97
2022-08-05T03:00:38.853Z,3.90
2022-08-05T03:03:27.576Z,3.87
2022-08-05T03:06:53.942Z,6.27
2022-08-05T03:09:38.205Z,6.33
2022-08-05T03:12:36.470Z,5.60
2022-08-05T03:15:25.150Z,4.67
2022-08-05T03:18:14.219Z,5.40
2022-08-05T03:21:06.114Z,3.17
2022-08-05T03:23:55.250Z,4.53
2022-08-05T03:26:45.738Z,6.10
2022-08-05T03:29:44.682Z,4.40
2022-08-05T03:32:48.262Z,3.53
2022-08-05T03:35:41.492Z,4.53
2022-08-05T03:38:33.279Z,5.90
2022-08-05T03:41:25.901Z,7.90
2022-08-05T03:44:21.733Z,8.60
2022-08-05T03:47:13.570Z,8.13
2022-08-05T03:50:02.098Z,3.33
2022-08-05T03:55:34.390Z,4.23
2022-08-05T03:56:11.851Z,7.47
2022-08-05T03:59:05.076Z,6.47
2022-08-05T04:01:58.893Z,3.80
2022-08-05T04:04:49.065Z,5.70
2022-08-05T04:07:57.063Z,9.50
2022-08-05T04:10:46.408Z,6.87
2022-08-05T04:13:50.673Z,5.10
2022-08-05T04:16:41.679Z,9.87
2022-08-05T04:19:30.409Z,4.47
2022-08-05T04:22:21.257Z,4.70
2022-08-05T04:25:11.290Z,4.83
2022-08-05T04:28:03.974Z,4.97
2022-08-05T04:31:01.055Z,5.07
2022-08-05T04:34:19.342Z,4.87
2022-08-05T04:36:58.352Z,3.17
2022-08-05T04:39:52.946Z,3.33
2022-08-05T04:42:44.104Z,5.83
2022-08-05T04:45:48.649Z,5.60
2022-08-05T04:48:37.702Z,3.40
2022-08-05T04:51:26.217Z,5.60
2022-08-05T04:54:19.713Z,4.33
2022-08-05T04:57:09.594Z,4.20
2022-08-05T04:59:58.974Z,3.77
2022-08-05T05:02:47.580Z,4.70
2022-08-05T05:06:36.629Z,4.00
2022-08-05T05:08:44.639Z,7.93
2022-08-05T05:11:53.877Z,4.07
2022-08-05T05:14:50.576Z,6.70
2022-08-05T05:17:56.445Z,3.57
2022-08-05T05:20:46.398Z,6.07
2022-08-05T05:23:39.138Z,5.20
2022-08-05T05:26:46.839Z,4.77
2022-08-05T05:30:04.557Z,3.70
2022-08-05T05:32:50.373Z,5.70
2022-08-05T05:35:39.687Z,3.83
2022-08-05T05:38:31.110Z,5.50
2022-08-05T05:41:20.164Z,3.67
2022-08-05T05:44:36.922Z,3.93
2022-08-05T05:47:30.257Z,5.23
2022-08-05T05:50:27.264Z,4.07
2022-08-05T05:53:21.244Z,3.57
2022-08-05T05:56:10.689Z,3.83
2022-08-05T05:59:03.580Z,6.17
2022-08-05T06:01:57.064Z,3.93
2022-08-05T06:04:49.244Z,3.73
2022-08-05T06:07:41.277Z,4.50
2022-08-05T06:10:36.309Z,2.90
2022-08-05T06:13:25.963Z,4.27
2022-08-05T06:16:29.067Z,3.20
2022-08-05T06:19:26.100Z,3.00
2022-08-05T06:22:24.498Z,2.40
2022-08-05T06:25:58.976Z,2.73
2022-08-05T06:28:23.351Z,3.50
2022-08-05T06:31:18.297Z,3.50
2022-08-05T06:34:10.688Z,4.30
2022-08-05T06:36:59.343Z,3.22
2022-08-05T06:39:47.881Z,3.42
2022-08-05T06:42:39.711Z,5.55
2022-08-05T06:45:44.779Z,2.95
2022-08-05T06:48:56.813Z,2.45
2022-08-05T06:51:45.787Z,2.58
2022-08-05T06:54:35.964Z,2.75
2022-08-05T06:58:03.304Z,2.72
2022-08-05T07:00:34.422Z,2.95
2022-08-05T07:03:32.431Z,2.90
2022-08-05T07:06:22.772Z,3.73
2022-08-05T07:09:11.271Z,3.03
2022-08-05T07:12:02.423Z,3.13
2022-08-05T07:15:08.787Z,3.20
2022-08-05T07:18:07.432Z,5.20
2022-08-05T07:20:57.378Z,3.77
2022-08-05T07:23:49.898Z,2.73
2022-08-05T07:26:41.045Z,3.63
2022-08-05T07:30:22.802Z,5.67
2022-08-05T07:32:38.194Z,5.10
2022-08-05T07:36:01.813Z,3.70
2022-08-05T07:38:43.601Z,4.03
2022-08-05T07:42:14.353Z,3.63
2022-08-05T07:44:41.577Z,3.30
2022-08-05T07:47:42.576Z,4.13
2022-08-05T07:50:33.620Z,4.00
2022-08-05T07:53:22.179Z,5.77
2022-08-05T07:57:01.197Z,4.47
2022-08-05T07:59:38.608Z,2.73
2022-08-05T08:02:31.151Z,3.63
2022-08-05T08:05:41.188Z,3.27
2022-08-05T08:08:32.126Z,4.47
2022-08-05T08:11:27.726Z,2.73
2022-08-05T08:14:29.110Z,3.93
2022-08-05T08:17:17.805Z,2.17
2022-08-05T08:20:43.839Z,2.80
2022-08-05T08:24:01.930Z,2.40
2022-08-05T08:26:30.143Z,3.17
2022-08-05T08:30:03.097Z,2.30
2022-08-05T08:32:28.399Z,3.20
2022-08-05T08:35:16.971Z,4.67
2022-08-05T08:38:07.721Z,5.40
2022-08-05T08:40:57.536Z,3.57
2022-08-05T08:45:19.918Z,2.43
2022-08-05T08:46:55.176Z,5.97
2022-08-05T08:50:06.141Z,2.30
2022-08-05T08:53:01.982Z,2.20
2022-08-05T08:56:04.843Z,2.70
2022-08-05T08:58:54.528Z,3.00
2022-08-05T09:01:43.757Z,3.50
2022-08-05T09:04:58.117Z,2.90
2022-08-05T09:07:57.055Z,3.27
2022-08-05T09:10:46.886Z,2.33
2022-08-05T09:14:09.683Z,2.67
2022-08-05T09:16:48.824Z,7.73
2022-08-05T09:20:01.996Z,5.93
2022-08-05T09:23:18.544Z,3.63
2022-08-05T09:26:10.276Z,3.70
2022-08-05T09:29:07.086Z,3.33
2022-08-05T09:32:41.353Z,3.43
2022-08-05T09:35:26.933Z,3.60
2022-08-05T09:38:27.452Z,2.57
2022-08-05T09:41:18.086Z,3.47
2022-08-05T09:44:09.053Z,4.20
2022-08-05T09:47:12.619Z,2.33
2022-08-05T09:50:03.597Z,2.43
2022-08-05T09:52:52.931Z,2.70
2022-08-05T09:55:58.313Z,2.03
2022-08-05T09:59:00.098Z,3.43
2022-08-05T10:01:58.359Z,2.43
2022-08-05T10:04:48.385Z,2.83
2022-08-05T10:08:36.052Z,2.87
2022-08-05T10:11:05.890Z,3.23
2022-08-05T10:13:57.541Z,2.40
2022-08-05T10:16:52.926Z,2.37
2022-08-05T10:20:04.208Z,4.43
2022-08-05T10:22:51.793Z,2.50
2022-08-05T10:25:41.203Z,2.30
2022-08-05T10:28:31.439Z,2.53
2022-08-05T10:32:52.140Z,2.57
2022-08-05T10:34:30.998Z,2.53
2022-08-05T10:37:21.097Z,2.17
2022-08-05T10:40:27.963Z,2.67
2022-08-05T10:43:35.530Z,2.47
2022-08-05T10:46:24.915Z,3.73
2022-08-05T10:49:16.525Z,4.27
2022-08-05T10:52:10.562Z,2.43
2022-08-05T10:55:06.863Z,2.73
2022-08-05T10:58:09.391Z,2.90
2022-08-05T11:01:02.790Z,2.50
2022-08-05T11:04:08.795Z,2.87
2022-08-05T11:07:08.888Z,2.60
2022-08-05T11:10:09.499Z,3.67
2022-08-05T11:13:01.353Z,2.40
2022-08-05T11:16:00.347Z,3.03
2022-08-05T11:18:51.763Z,3.70
2022-08-05T11:21:48.756Z,3.10
2022-08-05T11:24:38.708Z,2.60
2022-08-05T11:27:52.006Z,2.80
2022-08-05T11:31:58.617Z,3.03
2022-08-05T11:34:51.607Z,2.60
2022-08-05T11:38:29.049Z,3.07
2022-08-05T11:41:58.330Z,2.73
2022-08-05T11:44:40.684Z,2.63
2022-08-05T11:47:48.574Z,4.20
2022-08-05T11:50:39.280Z,3.03
2022-08-05T11:53:27.791Z,2.87
2022-08-05T11:56:40.719Z,4.90
2022-08-05T11:59:30.821Z,3.20
2022-08-05T12:02:40.125Z,3.27
2022-08-05T12:05:36.065Z,2.90
2022-08-05T12:08:24.949Z,2.83
2022-08-05T12:11:20.482Z,2.60
2022-08-05T12:14:10.192Z,4.60
2022-08-05T12:16:59.104Z,4.07
2022-08-05T12:20:17.224Z,2.97
2022-08-05T12:23:10.777Z,3.37
2022-08-05T12:25:59.260Z,3.27
2022-08-05T12:28:47.923Z,2.80
2022-08-05T12:31:45.872Z,2.67
2022-08-05T12:34:38.793Z,2.67
2022-08-05T12:37:30.049Z,3.33
2022-08-05T12:40:26.730Z,2.83
2022-08-05T12:43:20.976Z,5.60
2022-08-05T12:46:12.505Z,2.73
2022-08-05T12:49:05.910Z,2.53
2022-08-05T12:52:14.355Z,2.30
2022-08-05T12:55:25.380Z,3.27
2022-08-05T12:58:49.312Z,2.60
2022-08-05T13:02:03.287Z,3.93
2022-08-05T13:04:54.284Z,3.13
2022-08-05T13:08:01.004Z,2.70
2022-08-05T13:10:51.251Z,2.50
2022-08-05T13:14:06.835Z,3.60
2022-08-05T13:16:51.094Z,2.67
2022-08-05T13:19:51.710Z,2.80
2022-08-05T13:22:43.305Z,2.33
2022-08-05T13:25:52.326Z,2.60
2022-08-05T13:28:44.085Z,2.60
2022-08-05T13:31:33.781Z,2.70
2022-08-05T13:34:41.172Z,3.87
2022-08-05T13:37:34.881Z,2.97
2022-08-05T13:40:36.879Z,2.50
2022-08-05T13:43:44.916Z,2.70
2022-08-05T13:47:02.315Z,3.03
2022-08-05T13:49:50.639Z,3.10
2022-08-05T13:52:39.109Z,5.20
2022-08-05T13:55:40.815Z,3.10
2022-08-05T13:58:31.018Z,2.67
2022-08-05T14:01:19.769Z,3.23
2022-08-05T14:04:35.026Z,3.83
2022-08-05T14:08:00.249Z,3.60
2022-08-05T14:10:34.786Z,3.10
2022-08-05T14:13:25.413Z,3.00
2022-08-05T14:16:16.724Z,2.73
2022-08-05T14:19:05.771Z,5.43
2022-08-05T14:22:09.499Z,2.83
2022-08-05T14:25:06.299Z,4.20
2022-08-05T14:28:07.757Z,3.20
2022-08-05T14:30:56.332Z,2.80
2022-08-05T14:33:59.338Z,3.00
2022-08-05T14:36:49.079Z,3.03
2022-08-05T14:39:49.822Z,3.47
2022-08-05T14:42:45.560Z,2.90
2022-08-05T14:45:34.046Z,4.00
2022-08-05T14:48:33.304Z,4.60
2022-08-05T14:51:22.627Z,3.53
2022-08-05T14:54:28.175Z,3.43
2022-08-05T14:57:20.489Z,3.07
2022-08-05T15:00:14.267Z,4.30
2022-08-05T15:03:03.797Z,3.30
2022-08-05T15:06:07.425Z,3.70
2022-08-05T15:09:03.535Z,3.33
2022-08-05T15:11:53.714Z,4.03
2022-08-05T15:14:49.686Z,4.07
2022-08-05T15:17:47.202Z,3.70
2022-08-05T15:20:39.845Z,3.90
2022-08-05T15:23:30.298Z,3.90
2022-08-05T15:26:32.163Z,3.90
2022-08-05T15:29:20.989Z,5.60
2022-08-05T15:32:11.812Z,4.53
2022-08-05T15:35:10.024Z,4.77
2022-08-05T15:38:32.421Z,5.00
2022-08-05T15:41:22.059Z,5.17
2022-08-05T15:44:12.069Z,7.67
2022-08-05T15:47:01.895Z,8.60
2022-08-05T15:49:59.242Z,4.97
2022-08-05T15:52:54.298Z,7.00
2022-08-05T15:56:03.043Z,9.53
2022-08-05T15:58:52.486Z,10.13
2022-08-05T16:01:53.219Z,10.43
2022-08-05T16:04:42.282Z,11.47
2022-08-05T16:07:32.134Z,10.93
2022-08-05T16:10:23.122Z,11.60
2022-08-05T16:13:23.620Z,11.47
2022-08-05T16:16:12.742Z,11.80
2022-08-05T16:19:04.378Z,12.13
2022-08-05T16:21:59.417Z,11.03
2022-08-05T16:24:52.549Z,12.23
2022-08-05T16:27:59.879Z,12.07
2022-08-05T16:30:50.299Z,11.60
2022-08-05T16:33:41.497Z,12.47
2022-08-05T16:36:30.538Z,12.80
2022-08-05T16:39:20.775Z,13.23
2022-08-05T16:42:15.253Z,11.53
2022-08-05T16:46:05.827Z,9.97
2022-08-05T16:48:25.161Z,9.60
2022-08-05T16:51:15.841Z,10.23
2022-08-05T16:54:16.050Z,8.20
2022-08-05T16:57:14.993Z,8.80
2022-08-05T17:00:14.334Z,7.80
2022-08-05T17:03:20.031Z,7.73
2022-08-05T17:06:09.281Z,7.87
2022-08-05T17:08:59.340Z,7.17
2022-08-05T17:11:48.604Z,7.03
2022-08-05T17:14:38.498Z,6.70
2022-08-05T17:17:42.389Z,6.30
2022-08-05T17:20:31.493Z,6.67
2022-08-05T17:24:03.715Z,5.53
2022-08-05T17:26:28.500Z,5.50
2022-08-05T17:29:17.426Z,5.27
2022-08-05T17:32:17.240Z,4.60
2022-08-05T17:35:09.241Z,5.03
2022-08-05T17:38:04.853Z,4.97
2022-08-05T17:40:53.730Z,4.90
2022-08-05T17:43:47.249Z,4.57
2022-08-05T17:46:41.564Z,5.40
2022-08-05T17:49:59.900Z,3.47
2022-08-05T17:52:53.282Z,6.93
2022-08-05T17:55:44.071Z,5.40
2022-08-05T17:58:35.238Z,4.57
2022-08-05T18:01:25.635Z,5.30
2022-08-05T18:04:15.328Z,2.97
2022-08-05T18:07:12.399Z,3.10
2022-08-05T18:10:09.972Z,3.67
2022-08-05T18:12:59.064Z,3.03
2022-08-05T18:15:50.314Z,3.03
2022-08-05T18:18:39.895Z,3.27
2022-08-05T18:22:08.229Z,2.63
2022-08-05T18:24:37.710Z,2.37
2022-08-05T18:27:29.321Z,2.13
2022-08-05T18:30:20.570Z,3.37
2022-08-05T18:33:13.615Z,2.97
2022-08-05T18:36:05.052Z,2.47
2022-08-05T18:38:55.612Z,3.00
2022-08-05T18:41:56.091Z,2.17
2022-08-05T18:44:56.570Z,3.17
2022-08-05T18:47:46.420Z,2.90
2022-08-05T18:50:55.346Z,2.43
2022-08-05T18:53:50.821Z,3.20
2022-08-05T18:56:39.290Z,2.23
2022-08-05T18:59:43.708Z,3.73
2022-08-05T19:02:38.678Z,2.77
2022-08-05T19:06:12.711Z,2.23
2022-08-05T19:08:35.886Z,2.23
2022-08-05T19:11:28.546Z,2.77
2022-08-05T19:14:26.632Z,2.43
2022-08-05T19:17:59.494Z,2.13
2022-08-05T19:20:46.928Z,1.93
2022-08-05T19:24:05.996Z,2.77
2022-08-05T19:26:54.548Z,4.23
2022-08-05T19:29:44.151Z,1.93
2022-08-05T19:32:33.049Z,2.13
2022-08-05T19:35:21.749Z,1.70
2022-08-05T19:38:11.781Z,2.33
2022-08-05T19:41:02.118Z,1.70
2022-08-05T19:44:05.728Z,2.83
2022-08-05T19:46:56.839Z,1.77
2022-08-05T19:49:48.001Z,1.87
2022-08-05T19:52:36.646Z,1.77
2022-08-05T19:56:14.916Z,1.80
2022-08-05T19:58:53.454Z,1.50
2022-08-05T20:01:42.859Z,1.60
2022-08-05T20:04:32.222Z,1.63
2022-08-05T20:07:45.776Z,2.83
2022-08-05T20:10:32.435Z,1.60
2022-08-05T20:13:21.593Z,1.70
2022-08-05T20:16:29.629Z,1.50
2022-08-05T20:19:18.145Z,1.87
2022-08-05T20:22:06.721Z,2.40
2022-08-05T20:24:58.277Z,2.17
2022-08-05T20:27:48.116Z,2.00
2022-08-05T20:30:38.580Z,2.53
2022-08-05T20:33:27.325Z,3.93
2022-08-05T20:36:21.777Z,1.60
2022-08-05T20:39:12.959Z,2.73
2022-08-05T20:42:01.965Z,2.13
2022-08-05T20:44:51.790Z,1.80
2022-08-05T20:47:41.033Z,2.10
2022-08-05T20:50:29.481Z,1.67
2022-08-05T20:53:36.774Z,3.53
2022-08-05T20:56:29.904Z,2.80
2022-08-05T20:59:26.654Z,1.47
2022-08-05T21:02:21.825Z,1.90
2022-08-05T21:05:15.353Z,1.83
2022-08-05T21:08:04.347Z,3.33
2022-08-05T21:10:53.240Z,3.07
2022-08-05T21:13:47.601Z,3.30
2022-08-05T21:16:44.381Z,2.40
2022-08-05T21:19:47.268Z,1.83
2022-08-05T21:22:38.814Z,1.43
2022-08-05T21:25:33.856Z,1.67
2022-08-05T21:28:23.852Z,1.40
2022-08-05T21:31:13.177Z,2.43
2022-08-05T21:34:01.919Z,2.20
2022-08-05T21:36:51.742Z,1.90
2022-08-05T21:39:40.879Z,1.70
2022-08-05T21:42:40.973Z,2.90
2022-08-05T21:45:56.335Z,2.30
2022-08-05T21:48:42.112Z,1.50
2022-08-05T21:52:21.999Z,1.50
2022-08-05T21:54:41.345Z,2.00
2022-08-05T21:57:32.427Z,2.33
2022-08-05T22:00:21.347Z,2.90
2022-08-05T22:03:14.394Z,2.00
2022-08-05T22:06:02.903Z,2.43
2022-08-05T22:08:53.653Z,3.50
2022-08-05T22:11:46.868Z,1.60
2022-08-05T22:14:38.805Z,2.27
2022-08-05T22:17:27.547Z,4.00
2022-08-05T22:20:16.862Z,2.30
2022-08-05T22:23:24.065Z,3.67
2022-08-05T22:26:30.520Z,2.20
2022-08-05T22:29:26.785Z,3.30
2022-08-05T22:32:19.496Z,2.23
2022-08-05T22:35:11.392Z,3.30
2022-08-05T22:38:00.047Z,2.23
2022-08-05T22:40:50.123Z,4.70
2022-08-05T22:43:43.694Z,3.20
2022-08-05T22:46:33.548Z,2.20
2022-08-05T22:50:19.259Z,3.83
2022-08-05T22:52:36.813Z,4.37
2022-08-05T22:55:26.239Z,2.53
2022-08-05T22:58:14.793Z,2.43
2022-08-05T23:01:16.804Z,2.40
2022-08-05T23:04:10.390Z,2.23
2022-08-05T23:06:58.914Z,3.93
2022-08-05T23:09:57.225Z,2.63
2022-08-05T23:12:51.321Z,2.50
2022-08-05T23:15:42.810Z,2.20
2022-08-05T23:18:31.543Z,5.17
2022-08-05T23:21:22.228Z,1.80
2022-08-05T23:24:30.720Z,2.57
2022-08-05T23:27:19.673Z,4.20
2022-08-05T23:30:12.499Z,2.13
2022-08-05T23:33:01.454Z,2.43
2022-08-05T23:35:49.965Z,2.27
2022-08-05T23:38:39.750Z,2.27
2022-08-05T23:41:28.272Z,5.60
2022-08-05T23:44:25.143Z,2.37
2022-08-05T23:47:19.744Z,2.97
2022-08-05T23:50:09.758Z,2.60
2022-08-05T23:52:58.290Z,2.50
2022-08-05T23:55:48.440Z,3.07
2022-08-05T23:58:38.895Z,1.60
